Windom, MN (56101)

10:03 PM CST on January 19, 2017 (GMT -0600)
Windom Municipal | | Change Station
Active Advisory: Dense Fog Advisory

Elev 1407 ft 43.91 °N, 95.11 °W | Updated 9 minutes ago

Overcast
Overcast
36 °F
Feels Like 30 °F
N
7
Wind Variable Wind from South

Today
High -- | Low -- °F
--% Chance of Precip.
Yesterday
High -- | Low -- °F
Precip. -- in
Pressure 29.63 in
Visibility 1.8 miles
Clouds Overcast 100 ft
Windchill 30 °F
Dew Point 36 °F
Humidity 100%
Rainfall 0.00 in
Snow Depth Not available.
7:48 AM 5:14 PM
Waning Gibbous, 48% visible
METAR KMWM 200354Z AUTO 17006KT 1 3/4SM BR OVC001 02/02 A2963 RMK AO2
Pressure 29.63 in
Visibility 1.8 miles
Clouds Overcast 100 ft
Windchill 30 °F
Dew Point 36 °F
Humidity 100%
Rainfall 0.00 in
Snow Depth Not available.
7:48 AM 5:14 PM
Waning Gibbous, 48% visible
METAR KMWM 200354Z AUTO 17006KT 1 3/4SM BR OVC001 02/02 A2963 RMK AO2

Get Your Daily Forecast Email!

Thanks for signing up!

Be on the lookout for a verification email in your inbox.

You'll start receiving the daily forecast at 8 AM.

×

10-Day Weather Forecast

Almanac

Astronomy

Jan. 19, 2017 Rise Set
Actual Time
Civil Twilight
Nautical Twilight
Astronomical Twilight
Moon
Length of Visible Light
Length of Day
Tomorrow will be .
, % of the Moon is Illuminated

Today's Extremes

State Highs State Lows

Community

WunderPhotos

Upload Photos

1,962,540 photos uploaded!

WunderBlog® & News

Nearby

Air Quality

  Air Quality AQ Index Pollutant
Not available.

Snow Depth

Station Depth Elevation

Earthquake Activity

City Distance Mag. Time & Date
Minimum magnitude displayed is 2.5.

Coastal Water Temperatures

Place Temperature

Stations

Nearby Weather Stations

Station Location Temp. Windchill Dew Point Humidity Wind Precip. Elev Updated Type
                   

Watches & Warnings

Dense Fog Advisory
Issued: 7:44 PM CST Jan. 19, 2017 – National Weather Service

... Dense fog advisory in effect until 10 am CST Friday...

The National Weather Service in Sioux Falls has issued a dense
fog advisory, which is in effect until 10 am CST Friday.

* Weather conditions... dense fog will become widespread this
evening and continue into mid-morning Friday... before gradually
diminishing from the south. Visibilities will periodically reach
a quarter mile or less.

Precautionary/preparedness actions...

A dense fog advisory means visibilities will frequently be
reduced to less than one quarter mile. If driving... slow down...
use your headlights... and leave plenty of distance ahead of you.